sensor_id;sensor_type;location;lat;lon;timestamp;P1;durP1;ratioP1;P2;durP2;ratioP2
3979;SDS011;2004;52.452;13.120;2023-07-13T00:06:40;7.70;;;3.10;;
3979;SDS011;2004;52.452;13.120;2023-07-13T00:14:34;3.80;;;2.47;;
3979;SDS011;2004;52.452;13.120;2023-07-13T00:22:25;2.27;;;2.07;;
3979;SDS011;2004;52.452;13.120;2023-07-13T00:30:16;5.27;;;2.40;;
3979;SDS011;2004;52.452;13.120;2023-07-13T00:38:06;4.50;;;2.53;;
3979;SDS011;2004;52.452;13.120;2023-07-13T00:46:11;4.83;;;2.10;;
3979;SDS011;2004;52.452;13.120;2023-07-13T00:54:05;6.97;;;2.63;;
3979;SDS011;2004;52.452;13.120;2023-07-13T01:01:59;6.50;;;2.63;;
3979;SDS011;2004;52.452;13.120;2023-07-13T01:09:50;5.27;;;2.93;;
3979;SDS011;2004;52.452;13.120;2023-07-13T01:17:41;10.30;;;2.57;;
3979;SDS011;2004;52.452;13.120;2023-07-13T01:25:35;4.13;;;2.60;;
3979;SDS011;2004;52.452;13.120;2023-07-13T01:33:27;2.70;;;2.37;;
3979;SDS011;2004;52.452;13.120;2023-07-13T01:41:17;10.27;;;3.47;;
3979;SDS011;2004;52.452;13.120;2023-07-13T01:49:08;8.37;;;2.87;;
3979;SDS011;2004;52.452;13.120;2023-07-13T01:56:58;4.23;;;2.70;;
3979;SDS011;2004;52.452;13.120;2023-07-13T02:04:49;5.63;;;2.60;;
3979;SDS011;2004;52.452;13.120;2023-07-13T02:12:40;2.70;;;2.50;;
3979;SDS011;2004;52.452;13.120;2023-07-13T02:20:31;2.97;;;2.67;;
3979;SDS011;2004;52.452;13.120;2023-07-13T02:28:23;5.37;;;2.90;;
3979;SDS011;2004;52.452;13.120;2023-07-13T02:36:14;3.20;;;3.00;;
3979;SDS011;2004;52.452;13.120;2023-07-13T02:44:06;5.03;;;3.03;;
3979;SDS011;2004;52.452;13.120;2023-07-13T02:51:58;4.13;;;2.80;;
3979;SDS011;2004;52.452;13.120;2023-07-13T02:59:48;4.27;;;3.13;;
3979;SDS011;2004;52.452;13.120;2023-07-13T03:07:39;8.80;;;3.70;;
3979;SDS011;2004;52.452;13.120;2023-07-13T03:15:30;7.33;;;3.63;;
3979;SDS011;2004;52.452;13.120;2023-07-13T03:23:21;6.40;;;3.37;;
3979;SDS011;2004;52.452;13.120;2023-07-13T03:31:19;5.33;;;2.67;;
3979;SDS011;2004;52.452;13.120;2023-07-13T03:39:15;5.97;;;3.00;;
3979;SDS011;2004;52.452;13.120;2023-07-13T03:47:06;5.37;;;3.63;;
3979;SDS011;2004;52.452;13.120;2023-07-13T03:54:59;4.23;;;3.67;;
3979;SDS011;2004;52.452;13.120;2023-07-13T04:02:50;5.80;;;3.70;;
3979;SDS011;2004;52.452;13.120;2023-07-13T04:10:42;5.70;;;3.23;;
3979;SDS011;2004;52.452;13.120;2023-07-13T04:18:33;5.80;;;3.47;;
3979;SDS011;2004;52.452;13.120;2023-07-13T04:26:24;3.53;;;2.90;;
3979;SDS011;2004;52.452;13.120;2023-07-13T04:34:16;8.30;;;3.17;;
3979;SDS011;2004;52.452;13.120;2023-07-13T04:42:07;5.17;;;4.07;;
3979;SDS011;2004;52.452;13.120;2023-07-13T04:49:57;4.60;;;4.17;;
3979;SDS011;2004;52.452;13.120;2023-07-13T04:57:48;5.83;;;3.27;;
3979;SDS011;2004;52.452;13.120;2023-07-13T05:05:38;5.50;;;3.13;;
3979;SDS011;2004;52.452;13.120;2023-07-13T05:13:30;4.20;;;2.70;;
3979;SDS011;2004;52.452;13.120;2023-07-13T05:21:21;3.53;;;2.33;;
3979;SDS011;2004;52.452;13.120;2023-07-13T05:29:11;10.40;;;3.47;;
3979;SDS011;2004;52.452;13.120;2023-07-13T05:37:02;3.13;;;2.60;;
3979;SDS011;2004;52.452;13.120;2023-07-13T05:44:53;3.13;;;2.60;;
3979;SDS011;2004;52.452;13.120;2023-07-13T05:52:43;6.20;;;3.97;;
3979;SDS011;2004;52.452;13.120;2023-07-13T06:00:34;5.70;;;2.80;;
3979;SDS011;2004;52.452;13.120;2023-07-13T06:08:24;5.37;;;2.73;;
3979;SDS011;2004;52.452;13.120;2023-07-13T06:16:15;8.20;;;2.53;;
3979;SDS011;2004;52.452;13.120;2023-07-13T06:24:06;3.87;;;2.50;;
3979;SDS011;2004;52.452;13.120;2023-07-13T06:31:57;4.53;;;2.77;;
3979;SDS011;2004;52.452;13.120;2023-07-13T06:39:47;7.03;;;2.90;;
3979;SDS011;2004;52.452;13.120;2023-07-13T06:47:38;4.57;;;2.63;;
3979;SDS011;2004;52.452;13.120;2023-07-13T06:55:28;2.10;;;1.90;;
3979;SDS011;2004;52.452;13.120;2023-07-13T07:03:19;13.83;;;3.20;;
3979;SDS011;2004;52.452;13.120;2023-07-13T07:11:12;10.47;;;3.00;;
3979;SDS011;2004;52.452;13.120;2023-07-13T07:19:04;6.50;;;2.17;;
3979;SDS011;2004;52.452;13.120;2023-07-13T07:26:54;7.40;;;2.00;;
3979;SDS011;2004;52.452;13.120;2023-07-13T07:34:45;1.63;;;1.53;;
3979;SDS011;2004;52.452;13.120;2023-07-13T07:42:36;3.37;;;1.80;;
3979;SDS011;2004;52.452;13.120;2023-07-13T07:50:27;4.40;;;1.87;;
3979;SDS011;2004;52.452;13.120;2023-07-13T07:58:18;2.83;;;1.50;;
3979;SDS011;2004;52.452;13.120;2023-07-13T08:06:09;4.90;;;1.60;;
3979;SDS011;2004;52.452;13.120;2023-07-13T08:13:59;3.23;;;1.73;;
3979;SDS011;2004;52.452;13.120;2023-07-13T08:21:51;7.10;;;1.83;;
3979;SDS011;2004;52.452;13.120;2023-07-13T08:29:42;7.33;;;2.00;;
3979;SDS011;2004;52.452;13.120;2023-07-13T08:37:32;7.97;;;1.50;;
3979;SDS011;2004;52.452;13.120;2023-07-13T08:45:24;6.17;;;1.73;;
3979;SDS011;2004;52.452;13.120;2023-07-13T08:53:23;3.70;;;1.80;;
3979;SDS011;2004;52.452;13.120;2023-07-13T09:01:22;4.17;;;1.73;;
3979;SDS011;2004;52.452;13.120;2023-07-13T09:09:46;2.47;;;1.77;;
3979;SDS011;2004;52.452;13.120;2023-07-13T09:17:53;9.90;;;2.03;;
3979;SDS011;2004;52.452;13.120;2023-07-13T09:25:47;6.40;;;2.43;;
3979;SDS011;2004;52.452;13.120;2023-07-13T09:33:44;6.13;;;2.87;;
3979;SDS011;2004;52.452;13.120;2023-07-13T09:41:49;7.17;;;2.70;;
3979;SDS011;2004;52.452;13.120;2023-07-13T09:49:45;5.43;;;2.50;;
3979;SDS011;2004;52.452;13.120;2023-07-13T09:57:37;5.30;;;2.63;;
3979;SDS011;2004;52.452;13.120;2023-07-13T10:05:38;4.70;;;2.43;;
3979;SDS011;2004;52.452;13.120;2023-07-13T10:13:32;5.33;;;2.60;;
3979;SDS011;2004;52.452;13.120;2023-07-13T10:21:28;10.73;;;3.23;;
3979;SDS011;2004;52.452;13.120;2023-07-13T10:29:25;5.33;;;2.63;;
3979;SDS011;2004;52.452;13.120;2023-07-13T10:37:19;6.17;;;3.27;;
3979;SDS011;2004;52.452;13.120;2023-07-13T10:45:18;3.17;;;2.80;;
3979;SDS011;2004;52.452;13.120;2023-07-13T10:53:18;6.50;;;2.40;;
3979;SDS011;2004;52.452;13.120;2023-07-13T11:01:18;4.00;;;2.40;;
3979;SDS011;2004;52.452;13.120;2023-07-13T11:34:02;5.43;;;2.33;;
3979;SDS011;2004;52.452;13.120;2023-07-13T11:42:04;5.77;;;2.17;;
3979;SDS011;2004;52.452;13.120;2023-07-13T11:49:54;9.17;;;2.60;;
3979;SDS011;2004;52.452;13.120;2023-07-13T11:57:50;3.80;;;2.23;;
3979;SDS011;2004;52.452;13.120;2023-07-13T12:05:58;2.43;;;2.17;;
3979;SDS011;2004;52.452;13.120;2023-07-13T12:13:55;4.53;;;2.00;;
3979;SDS011;2004;52.452;13.120;2023-07-13T12:21:46;6.70;;;2.47;;
3979;SDS011;2004;52.452;13.120;2023-07-13T12:29:37;3.57;;;2.00;;
3979;SDS011;2004;52.452;13.120;2023-07-13T12:37:27;2.10;;;1.53;;
3979;SDS011;2004;52.452;13.120;2023-07-13T12:53:14;4.47;;;1.77;;
3979;SDS011;2004;52.452;13.120;2023-07-13T13:01:08;2.10;;;1.73;;
3979;SDS011;2004;52.452;13.120;2023-07-13T13:09:02;5.60;;;1.73;;
3979;SDS011;2004;52.452;13.120;2023-07-13T13:16:53;3.13;;;1.40;;
3979;SDS011;2004;52.452;13.120;2023-07-13T13:24:44;3.60;;;1.30;;
3979;SDS011;2004;52.452;13.120;2023-07-13T13:32:35;10.47;;;2.20;;
3979;SDS011;2004;52.452;13.120;2023-07-13T13:40:26;3.83;;;1.50;;
3979;SDS011;2004;52.452;13.120;2023-07-13T13:48:17;2.33;;;1.80;;
3979;SDS011;2004;52.452;13.120;2023-07-13T13:56:10;3.67;;;1.60;;
3979;SDS011;2004;52.452;13.120;2023-07-13T14:04:03;5.43;;;1.73;;
3979;SDS011;2004;52.452;13.120;2023-07-13T14:11:56;4.33;;;1.23;;
3979;SDS011;2004;52.452;13.120;2023-07-13T14:19:50;6.47;;;1.77;;
3979;SDS011;2004;52.452;13.120;2023-07-13T14:27:48;2.80;;;1.13;;
3979;SDS011;2004;52.452;13.120;2023-07-13T14:35:41;7.23;;;1.57;;
3979;SDS011;2004;52.452;13.120;2023-07-13T14:43:33;1.23;;;1.00;;
3979;SDS011;2004;52.452;13.120;2023-07-13T14:51:23;4.57;;;1.00;;
3979;SDS011;2004;52.452;13.120;2023-07-13T14:59:14;2.37;;;1.10;;
3979;SDS011;2004;52.452;13.120;2023-07-13T15:07:04;2.83;;;1.20;;
3979;SDS011;2004;52.452;13.120;2023-07-13T15:14:55;2.80;;;1.30;;
3979;SDS011;2004;52.452;13.120;2023-07-13T15:22:47;2.80;;;1.70;;
3979;SDS011;2004;52.452;13.120;2023-07-13T15:30:40;2.67;;;1.23;;
3979;SDS011;2004;52.452;13.120;2023-07-13T15:38:35;7.47;;;1.20;;
3979;SDS011;2004;52.452;13.120;2023-07-13T15:46:30;5.70;;;1.40;;
3979;SDS011;2004;52.452;13.120;2023-07-13T15:54:21;3.20;;;0.93;;
3979;SDS011;2004;52.452;13.120;2023-07-13T16:02:19;2.10;;;1.13;;
3979;SDS011;2004;52.452;13.120;2023-07-13T16:10:19;4.20;;;1.20;;
3979;SDS011;2004;52.452;13.120;2023-07-13T16:18:11;6.13;;;1.77;;
3979;SDS011;2004;52.452;13.120;2023-07-13T16:26:02;3.43;;;1.33;;
3979;SDS011;2004;52.452;13.120;2023-07-13T16:33:53;5.43;;;1.50;;
3979;SDS011;2004;52.452;13.120;2023-07-13T16:41:43;3.53;;;1.70;;
3979;SDS011;2004;52.452;13.120;2023-07-13T16:49:35;1.50;;;1.40;;
3979;SDS011;2004;52.452;13.120;2023-07-13T16:57:30;13.10;;;2.30;;
3979;SDS011;2004;52.452;13.120;2023-07-13T17:05:23;12.50;;;2.10;;
3979;SDS011;2004;52.452;13.120;2023-07-13T17:13:16;7.50;;;2.27;;
3979;SDS011;2004;52.452;13.120;2023-07-13T17:21:13;2.70;;;1.30;;
3979;SDS011;2004;52.452;13.120;2023-07-13T17:29:05;3.90;;;1.80;;
3979;SDS011;2004;52.452;13.120;2023-07-13T17:37:00;6.93;;;2.03;;
3979;SDS011;2004;52.452;13.120;2023-07-13T17:44:51;6.00;;;1.77;;
3979;SDS011;2004;52.452;13.120;2023-07-13T17:52:41;12.50;;;1.77;;
3979;SDS011;2004;52.452;13.120;2023-07-13T18:00:36;2.37;;;1.43;;
3979;SDS011;2004;52.452;13.120;2023-07-13T18:08:32;3.67;;;2.00;;
3979;SDS011;2004;52.452;13.120;2023-07-13T18:16:25;3.27;;;2.07;;
3979;SDS011;2004;52.452;13.120;2023-07-13T18:24:17;5.57;;;1.93;;
3979;SDS011;2004;52.452;13.120;2023-07-13T18:32:09;6.57;;;1.97;;
3979;SDS011;2004;52.452;13.120;2023-07-13T18:40:15;3.70;;;2.17;;
3979;SDS011;2004;52.452;13.120;2023-07-13T18:48:10;9.40;;;1.90;;
3979;SDS011;2004;52.452;13.120;2023-07-13T18:56:04;2.40;;;1.33;;
3979;SDS011;2004;52.452;13.120;2023-07-13T19:03:55;2.60;;;1.80;;
3979;SDS011;2004;52.452;13.120;2023-07-13T19:11:46;6.90;;;1.63;;
3979;SDS011;2004;52.452;13.120;2023-07-13T19:19:37;4.00;;;1.73;;
3979;SDS011;2004;52.452;13.120;2023-07-13T19:27:28;3.40;;;1.80;;
3979;SDS011;2004;52.452;13.120;2023-07-13T19:35:21;6.20;;;2.13;;
3979;SDS011;2004;52.452;13.120;2023-07-13T19:43:15;4.93;;;2.93;;
3979;SDS011;2004;52.452;13.120;2023-07-13T19:51:08;3.87;;;2.00;;
3979;SDS011;2004;52.452;13.120;2023-07-13T20:07:14;3.67;;;2.40;;
3979;SDS011;2004;52.452;13.120;2023-07-13T20:15:13;5.30;;;2.20;;
3979;SDS011;2004;52.452;13.120;2023-07-13T20:23:16;4.30;;;1.90;;
3979;SDS011;2004;52.452;13.120;2023-07-13T20:31:12;2.50;;;1.93;;
3979;SDS011;2004;52.452;13.120;2023-07-13T20:39:04;2.30;;;1.70;;
3979;SDS011;2004;52.452;13.120;2023-07-13T20:46:55;6.37;;;2.20;;
3979;SDS011;2004;52.452;13.120;2023-07-13T20:54:46;2.50;;;1.60;;
3979;SDS011;2004;52.452;13.120;2023-07-13T21:02:37;2.47;;;2.20;;
3979;SDS011;2004;52.452;13.120;2023-07-13T21:10:29;3.40;;;1.97;;
3979;SDS011;2004;52.452;13.120;2023-07-13T21:18:21;2.50;;;1.90;;
3979;SDS011;2004;52.452;13.120;2023-07-13T21:26:14;2.13;;;2.00;;
3979;SDS011;2004;52.452;13.120;2023-07-13T21:34:08;2.30;;;1.90;;
3979;SDS011;2004;52.452;13.120;2023-07-13T21:42:05;6.00;;;2.73;;
3979;SDS011;2004;52.452;13.120;2023-07-13T21:49:55;2.63;;;2.17;;
3979;SDS011;2004;52.452;13.120;2023-07-13T21:57:47;7.20;;;1.83;;
3979;SDS011;2004;52.452;13.120;2023-07-13T22:05:44;1.80;;;1.70;;
3979;SDS011;2004;52.452;13.120;2023-07-13T22:13:36;3.17;;;1.97;;
3979;SDS011;2004;52.452;13.120;2023-07-13T22:21:29;4.30;;;1.50;;
3979;SDS011;2004;52.452;13.120;2023-07-13T22:29:23;2.60;;;1.97;;
3979;SDS011;2004;52.452;13.120;2023-07-13T22:37:18;3.43;;;1.83;;
3979;SDS011;2004;52.452;13.120;2023-07-13T22:45:09;3.83;;;1.90;;
3979;SDS011;2004;52.452;13.120;2023-07-13T22:53:01;2.70;;;1.97;;
3979;SDS011;2004;52.452;13.120;2023-07-13T23:00:53;3.80;;;1.93;;
3979;SDS011;2004;52.452;13.120;2023-07-13T23:08:47;2.00;;;1.80;;
3979;SDS011;2004;52.452;13.120;2023-07-13T23:16:38;4.57;;;2.23;;
3979;SDS011;2004;52.452;13.120;2023-07-13T23:24:31;2.40;;;2.03;;
3979;SDS011;2004;52.452;13.120;2023-07-13T23:32:25;2.30;;;2.13;;
3979;SDS011;2004;52.452;13.120;2023-07-13T23:40:19;5.87;;;1.87;;
3979;SDS011;2004;52.452;13.120;2023-07-13T23:48:12;3.53;;;2.10;;
3979;SDS011;2004;52.452;13.120;2023-07-13T23:56:17;5.13;;;3.00;;
